Portada
METAR-TAF:

METAR-TAF

Aeropuertos :

Aeropuerto de Melilla

Melilla, España

latitud: 35-17N, longitud: 002-57W, altitud: 47 m

Observación

El informe se hizo hace 27 minutos, a las 18:30 UTC
Viento 3 kt del noroeste, variando entre oeste y norte-noroeste
Temperatura 19°C
Humedad 88%
Presión 1020 hPa
Visibilidad 10 km o más
Escasas nubes a una altura de 800 ft

METAR: GEML 201830Z 31003KT 280V340 9999 FEW008 19/17 Q1020

Hora: 20:57 (18:57 UTC)

Pronóstico

El informe se hizo hace 1 hora y 57 minutos, a las 17:00 UTC
Pronóstico válido del 20 a las 18 UTC al 21 a las 18 UTC
Viento 6 kt del oeste
Visibilidad 10 km o más
Escasas nubes a una altura de 1000 ft
Probabilidad 30% :
Temporalmente
del 21 a las 02 UTC al 21 a las 10 UTC
Visibilidad: 4000 m
Cielo nuboso a una altura de 1000 ft
neblina

TAF: GEML 201700Z 2018/2118 28006KT 9999 FEW010 TX27/2114Z TN16/2106Z PROB30 TEMPO 2102/2110 4000 BR BKN010

Observaciones y pronósticos meteorológicos de más de 4000 aeropuertos (mensajes METAR y TAF).

Los puntos amarillos y rojos representan las estaciones disponibles.

Ponga el ratón en el punto deseado para ver el nombre de la estación.

Haga clic para ver las observaciones y los pronósticos meteorológicos.

Para cambiar el mapa : haga clic en los botones verdes con una cruz de color negro para hacer un zoom, en el botón verde con un guión para alejar o en las flechas verdes para mapas adyacentes.


METAR-TAF: